createdAt,value
2017-09-05T00:02:03.558Z,1.03
2017-09-05T01:03:32.808Z,1.10
2017-09-05T01:06:13.563Z,0.80
2017-09-05T01:08:53.929Z,1.20
2017-09-05T01:19:40.096Z,0.80
2017-09-05T01:22:07.673Z,1.23
2017-09-05T01:24:35.258Z,0.83
2017-09-05T01:27:12.905Z,0.90
2017-09-05T01:37:36.330Z,0.70
2017-09-05T01:40:24.769Z,0.93
2017-09-05T01:45:26.918Z,0.83
2017-09-05T01:47:54.515Z,0.60
2017-09-05T01:50:22.214Z,0.73
2017-09-05T01:52:49.831Z,0.83
2017-09-05T01:55:24.939Z,0.80
2017-09-05T01:57:52.610Z,1.00
2017-09-05T02:00:20.120Z,0.70
2017-09-05T02:02:47.710Z,0.87
2017-09-05T02:05:28.715Z,0.70
2017-09-05T02:53:21.932Z,0.70
2017-09-05T02:55:49.507Z,0.70
2017-09-05T02:58:24.530Z,1.20
2017-09-05T03:00:52.151Z,0.70
2017-09-05T03:03:19.718Z,0.63
2017-09-05T03:05:47.354Z,0.70
2017-09-05T03:08:14.914Z,0.80
2017-09-05T03:10:49.491Z,0.83
2017-09-05T03:13:17.059Z,0.70
2017-09-05T03:16:11.351Z,0.70
2017-09-05T03:21:21.274Z,1.10
2017-09-05T03:26:45.014Z,0.73
2017-09-05T03:29:19.650Z,2.47
2017-09-05T03:52:47.315Z,0.70
2017-09-05T03:55:14.902Z,1.20
2017-09-05T03:57:42.462Z,1.10
2017-09-05T04:00:31.602Z,1.60
2017-09-05T04:02:59.110Z,1.00
2017-09-05T04:05:26.703Z,2.70
2017-09-05T04:07:54.286Z,1.50
2017-09-05T04:10:21.809Z,2.60
2017-09-05T04:13:02.194Z,18.37
2017-09-05T04:15:29.755Z,25.43
2017-09-05T04:17:57.419Z,19.10
2017-09-05T04:20:24.940Z,16.30
2017-09-05T04:22:52.683Z,10.93
2017-09-05T04:25:35.546Z,13.00
2017-09-05T04:28:03.327Z,39.47
2017-09-05T04:30:30.923Z,11.10
2017-09-05T04:33:33.238Z,8.40
2017-09-05T04:36:13.659Z,11.20
2017-09-05T04:38:41.259Z,14.67
2017-09-05T04:41:15.812Z,10.70
2017-09-05T04:43:43.395Z,9.87
2017-09-05T04:46:14.187Z,4.67
2017-09-05T04:48:41.706Z,22.37
2017-09-05T04:51:09.262Z,6.03
2017-09-05T04:53:36.779Z,4.67
2017-09-05T04:56:30.907Z,4.10
2017-09-05T04:58:58.420Z,7.73
2017-09-05T05:01:26.010Z,4.50
2017-09-05T05:03:53.531Z,4.10
2017-09-05T05:06:21.141Z,3.27
2017-09-05T05:08:48.725Z,2.27
2017-09-05T05:11:16.259Z,3.93
2017-09-05T05:13:43.859Z,1.60
2017-09-05T05:16:11.427Z,7.87
2017-09-05T07:28:30.302Z,2.30
2017-09-05T07:30:57.978Z,6.73
2017-09-05T07:33:25.594Z,8.90
2017-09-05T07:38:27.382Z,2.93
2017-09-05T10:27:18.455Z,4.60
2017-09-05T14:28:14.715Z,3.03
2017-09-05T14:30:42.317Z,2.30
2017-09-05T14:46:03.500Z,1.10
2017-09-05T14:48:31.276Z,2.23
2017-09-05T16:34:19.919Z,1.13
2017-09-05T16:36:55.008Z,4.17
2017-09-05T16:39:39.296Z,1.50
2017-09-05T17:19:25.583Z,1.23
2017-09-05T17:24:34.861Z,2.70
2017-09-05T17:27:21.116Z,1.67
2017-09-05T17:32:46.507Z,2.33
2017-09-05T17:35:24.139Z,3.17
2017-09-05T17:48:29.396Z,1.67
2017-09-05T17:53:42.307Z,2.30
2017-09-05T18:01:56.506Z,1.47
2017-09-05T18:15:47.431Z,1.27
2017-09-05T18:34:21.560Z,1.53
2017-09-05T18:39:24.010Z,1.90
2017-09-05T18:44:29.879Z,1.37
2017-09-05T19:02:50.286Z,1.80
2017-09-05T19:08:06.645Z,1.60
2017-09-05T19:10:36.388Z,1.70
2017-09-05T19:20:47.147Z,2.70
2017-09-05T19:23:19.502Z,1.63
2017-09-05T19:25:48.524Z,1.53
2017-09-05T19:28:25.405Z,1.37
2017-09-05T19:30:53.614Z,1.30
2017-09-05T19:33:22.193Z,1.83
2017-09-05T19:41:23.366Z,2.00
2017-09-05T19:43:56.720Z,1.50
2017-09-05T19:51:57.438Z,1.70
2017-09-05T19:54:41.893Z,1.70
2017-09-05T19:59:57.388Z,1.43
2017-09-05T20:02:37.443Z,0.90
2017-09-05T20:10:23.052Z,1.47
2017-09-05T20:15:28.354Z,1.60
2017-09-05T20:23:19.631Z,2.37
2017-09-05T20:25:48.285Z,1.70
2017-09-05T20:28:23.597Z,1.60
2017-09-05T20:36:18.410Z,1.47
2017-09-05T20:38:46.105Z,1.40
2017-09-05T20:41:13.734Z,1.30
2017-09-05T20:43:41.289Z,1.83
2017-09-05T20:46:08.973Z,1.43
2017-09-05T20:48:37.483Z,1.37
2017-09-05T20:51:05.069Z,1.50
2017-09-05T20:53:32.654Z,1.40
2017-09-05T20:56:00.336Z,1.20
2017-09-05T20:58:27.876Z,1.63
2017-09-05T21:00:55.484Z,1.60
2017-09-05T21:03:23.058Z,1.13
2017-09-05T21:05:50.647Z,2.73
2017-09-05T21:08:18.258Z,2.50
2017-09-05T21:10:45.874Z,1.43
2017-09-05T21:13:13.512Z,1.40
2017-09-05T21:15:41.180Z,1.50
2017-09-05T21:18:08.763Z,1.40
2017-09-05T21:20:36.384Z,1.30
2017-09-05T21:23:04.003Z,1.77
2017-09-05T21:25:31.588Z,2.97
2017-09-05T21:27:59.144Z,1.33
2017-09-05T21:30:26.723Z,1.37
2017-09-05T21:32:54.285Z,1.60
2017-09-05T21:35:21.901Z,1.27
2017-09-05T21:37:50.376Z,1.17
2017-09-05T21:40:17.996Z,1.43
2017-09-05T21:42:45.588Z,1.80
2017-09-05T21:45:13.183Z,1.73
2017-09-05T21:47:40.785Z,1.63
2017-09-05T21:50:08.411Z,1.47
2017-09-05T21:52:36.055Z,1.57
2017-09-05T21:55:03.638Z,1.60
2017-09-05T21:57:31.187Z,1.17
2017-09-05T21:59:58.776Z,1.30
2017-09-05T22:02:26.396Z,1.60
2017-09-05T22:04:54.856Z,1.30
2017-09-05T22:07:22.432Z,1.03
2017-09-05T22:12:47.328Z,1.00
2017-09-05T22:15:25.785Z,1.30
2017-09-05T22:17:53.360Z,1.63
2017-09-05T22:20:21.027Z,1.70
2017-09-05T22:22:48.635Z,1.47
2017-09-05T22:25:16.188Z,1.10
2017-09-05T22:27:43.782Z,1.50
2017-09-05T22:30:11.375Z,1.53
2017-09-05T22:32:38.935Z,1.60
2017-09-05T22:35:06.539Z,1.33
2017-09-05T22:37:34.110Z,1.50
2017-09-05T22:40:01.744Z,1.40
2017-09-05T22:42:29.292Z,1.53
2017-09-05T22:44:56.910Z,1.20
2017-09-05T22:47:24.458Z,1.53
2017-09-05T22:49:52.027Z,0.97
2017-09-05T22:52:19.591Z,1.37
2017-09-05T22:54:47.146Z,1.30
2017-09-05T22:57:14.724Z,1.23
2017-09-05T22:59:42.339Z,1.40
2017-09-05T23:02:09.905Z,1.27
2017-09-05T23:04:38.193Z,1.37
2017-09-05T23:07:05.824Z,1.50
2017-09-05T23:09:33.369Z,1.73
2017-09-05T23:12:00.948Z,1.17
2017-09-05T23:14:28.582Z,1.13
2017-09-05T23:16:56.171Z,1.17
2017-09-05T23:19:23.795Z,1.20
2017-09-05T23:21:51.354Z,1.17
2017-09-05T23:24:18.930Z,1.40
2017-09-05T23:26:46.534Z,1.20
2017-09-05T23:29:14.085Z,1.37
2017-09-05T23:31:41.764Z,0.93
2017-09-05T23:34:10.111Z,1.20
2017-09-05T23:36:37.691Z,0.97
2017-09-05T23:39:05.253Z,1.10
2017-09-05T23:41:32.812Z,1.13
2017-09-05T23:44:00.437Z,1.10
2017-09-05T23:46:28.043Z,1.07
2017-09-05T23:48:55.881Z,1.00
2017-09-05T23:54:18.347Z,1.07
2017-09-05T23:56:46.953Z,1.10
2017-09-05T23:59:14.758Z,1.50
